sensor_id;sensor_type;location;lat;lon;timestamp;P1;durP1;ratioP1;P2;durP2;ratioP2
40945;SDS011;55635;50.264;11.918;2023-02-15T00:02:40;255.77;;;24.98;;
40945;SDS011;55635;50.264;11.918;2023-02-15T00:05:21;196.18;;;20.23;;
40945;SDS011;55635;50.264;11.918;2023-02-15T00:08:02;224.95;;;25.17;;
40945;SDS011;55635;50.264;11.918;2023-02-15T00:10:43;302.55;;;29.25;;
40945;SDS011;55635;50.264;11.918;2023-02-15T00:13:24;190.70;;;24.77;;
40945;SDS011;55635;50.264;11.918;2023-02-15T00:16:05;275.73;;;28.35;;
40945;SDS011;55635;50.264;11.918;2023-02-15T00:18:51;304.92;;;29.80;;
40945;SDS011;55635;50.264;11.918;2023-02-15T00:21:33;307.13;;;28.00;;
40945;SDS011;55635;50.264;11.918;2023-02-15T00:24:16;400.00;;;37.65;;
40945;SDS011;55635;50.264;11.918;2023-02-15T00:26:59;427.65;;;35.50;;
40945;SDS011;55635;50.264;11.918;2023-02-15T00:29:40;415.65;;;37.92;;
40945;SDS011;55635;50.264;11.918;2023-02-15T00:32:21;371.60;;;35.92;;
40945;SDS011;55635;50.264;11.918;2023-02-15T00:35:02;175.60;;;21.40;;
40945;SDS011;55635;50.264;11.918;2023-02-15T00:37:43;349.20;;;35.33;;
40945;SDS011;55635;50.264;11.918;2023-02-15T00:40:23;243.88;;;24.35;;
40945;SDS011;55635;50.264;11.918;2023-02-15T00:43:04;360.17;;;34.03;;
40945;SDS011;55635;50.264;11.918;2023-02-15T00:45:45;421.30;;;37.67;;
40945;SDS011;55635;50.264;11.918;2023-02-15T00:48:27;311.60;;;31.17;;
40945;SDS011;55635;50.264;11.918;2023-02-15T00:51:08;209.60;;;19.17;;
40945;SDS011;55635;50.264;11.918;2023-02-15T00:53:49;406.75;;;36.55;;
40945;SDS011;55635;50.264;11.918;2023-02-15T00:56:30;427.80;;;37.92;;
40945;SDS011;55635;50.264;11.918;2023-02-15T00:59:11;364.25;;;29.15;;
40945;SDS011;55635;50.264;11.918;2023-02-15T01:01:52;298.33;;;28.65;;
40945;SDS011;55635;50.264;11.918;2023-02-15T01:04:33;263.90;;;23.25;;
40945;SDS011;55635;50.264;11.918;2023-02-15T01:07:14;255.13;;;25.25;;
40945;SDS011;55635;50.264;11.918;2023-02-15T01:09:55;234.27;;;20.88;;
40945;SDS011;55635;50.264;11.918;2023-02-15T01:12:36;211.70;;;24.63;;
40945;SDS011;55635;50.264;11.918;2023-02-15T01:15:17;401.08;;;36.05;;
40945;SDS011;55635;50.264;11.918;2023-02-15T01:17:58;321.80;;;31.20;;
40945;SDS011;55635;50.264;11.918;2023-02-15T01:20:39;287.60;;;26.52;;
40945;SDS011;55635;50.264;11.918;2023-02-15T01:23:21;210.07;;;25.23;;
40945;SDS011;55635;50.264;11.918;2023-02-15T01:26:02;155.00;;;18.88;;
40945;SDS011;55635;50.264;11.918;2023-02-15T01:28:43;222.43;;;22.35;;
40945;SDS011;55635;50.264;11.918;2023-02-15T01:31:25;276.10;;;30.27;;
40945;SDS011;55635;50.264;11.918;2023-02-15T01:34:06;157.75;;;19.77;;
40945;SDS011;55635;50.264;11.918;2023-02-15T01:36:47;98.28;;;15.30;;
40945;SDS011;55635;50.264;11.918;2023-02-15T01:39:28;220.35;;;22.40;;
40945;SDS011;55635;50.264;11.918;2023-02-15T01:42:10;104.93;;;15.60;;
40945;SDS011;55635;50.264;11.918;2023-02-15T01:44:53;113.70;;;15.63;;
40945;SDS011;55635;50.264;11.918;2023-02-15T01:47:48;283.98;;;25.88;;
40945;SDS011;55635;50.264;11.918;2023-02-15T01:50:44;252.13;;;25.05;;
40945;SDS011;55635;50.264;11.918;2023-02-15T01:53:40;235.38;;;24.67;;
40945;SDS011;55635;50.264;11.918;2023-02-15T01:56:33;432.33;;;34.92;;
40945;SDS011;55635;50.264;11.918;2023-02-15T01:59:19;295.20;;;27.23;;
40945;SDS011;55635;50.264;11.918;2023-02-15T02:02:03;249.18;;;23.83;;
40945;SDS011;55635;50.264;11.918;2023-02-15T02:04:48;120.80;;;13.35;;
40945;SDS011;55635;50.264;11.918;2023-02-15T02:07:33;166.57;;;19.33;;
40945;SDS011;55635;50.264;11.918;2023-02-15T02:10:19;136.48;;;15.65;;
40945;SDS011;55635;50.264;11.918;2023-02-15T02:13:05;180.93;;;19.27;;
40945;SDS011;55635;50.264;11.918;2023-02-15T02:16:04;185.10;;;21.60;;
40945;SDS011;55635;50.264;11.918;2023-02-15T02:25:42;164.55;;;18.45;;
40945;SDS011;55635;50.264;11.918;2023-02-15T02:35:11;267.10;;;29.52;;
40945;SDS011;55635;50.264;11.918;2023-02-15T02:42:01;269.83;;;29.00;;
40945;SDS011;55635;50.264;11.918;2023-02-15T02:47:51;158.35;;;16.02;;
40945;SDS011;55635;50.264;11.918;2023-02-15T02:50:44;229.15;;;24.58;;
40945;SDS011;55635;50.264;11.918;2023-02-15T02:53:25;57.13;;;10.38;;
40945;SDS011;55635;50.264;11.918;2023-02-15T02:56:11;103.38;;;12.98;;
40945;SDS011;55635;50.264;11.918;2023-02-15T02:59:11;34.67;;;6.97;;
40945;SDS011;55635;50.264;11.918;2023-02-15T03:02:02;36.40;;;8.77;;
40945;SDS011;55635;50.264;11.918;2023-02-15T03:04:54;58.30;;;10.13;;
40945;SDS011;55635;50.264;11.918;2023-02-15T03:07:45;31.23;;;8.40;;
40945;SDS011;55635;50.264;11.918;2023-02-15T03:10:31;38.67;;;8.55;;
40945;SDS011;55635;50.264;11.918;2023-02-15T03:13:15;25.60;;;8.43;;
40945;SDS011;55635;50.264;11.918;2023-02-15T03:15:56;17.85;;;6.40;;
40945;SDS011;55635;50.264;11.918;2023-02-15T03:18:59;15.55;;;6.63;;
40945;SDS011;55635;50.264;11.918;2023-02-15T03:21:56;10.93;;;6.10;;
40945;SDS011;55635;50.264;11.918;2023-02-15T03:28:19;12.07;;;5.60;;
40945;SDS011;55635;50.264;11.918;2023-02-15T03:31:11;11.00;;;5.45;;
40945;SDS011;55635;50.264;11.918;2023-02-15T03:33:57;13.23;;;6.28;;
40945;SDS011;55635;50.264;11.918;2023-02-15T03:36:47;10.77;;;5.97;;
40945;SDS011;55635;50.264;11.918;2023-02-15T03:39:39;67.57;;;8.52;;
40945;SDS011;55635;50.264;11.918;2023-02-15T03:42:30;16.88;;;6.68;;
40945;SDS011;55635;50.264;11.918;2023-02-15T03:45:17;25.17;;;5.85;;
40945;SDS011;55635;50.264;11.918;2023-02-15T03:48:07;9.82;;;5.45;;
40945;SDS011;55635;50.264;11.918;2023-02-15T03:50:48;7.13;;;5.00;;
40945;SDS011;55635;50.264;11.918;2023-02-15T03:53:49;8.32;;;4.85;;
40945;SDS011;55635;50.264;11.918;2023-02-15T03:56:33;8.80;;;5.13;;
40945;SDS011;55635;50.264;11.918;2023-02-15T03:59:20;8.70;;;5.20;;
40945;SDS011;55635;50.264;11.918;2023-02-15T04:02:21;5.90;;;4.68;;
40945;SDS011;55635;50.264;11.918;2023-02-15T04:05:09;8.50;;;4.95;;
40945;SDS011;55635;50.264;11.918;2023-02-15T04:07:50;6.53;;;4.53;;
40945;SDS011;55635;50.264;11.918;2023-02-15T04:10:31;14.98;;;5.13;;
40945;SDS011;55635;50.264;11.918;2023-02-15T04:13:31;9.02;;;5.10;;
40945;SDS011;55635;50.264;11.918;2023-02-15T04:16:13;8.80;;;4.80;;
40945;SDS011;55635;50.264;11.918;2023-02-15T04:18:54;25.00;;;6.00;;
40945;SDS011;55635;50.264;11.918;2023-02-15T04:21:53;38.80;;;7.53;;
40945;SDS011;55635;50.264;11.918;2023-02-15T04:24:53;18.88;;;6.43;;
40945;SDS011;55635;50.264;11.918;2023-02-15T04:27:50;23.05;;;6.22;;
40945;SDS011;55635;50.264;11.918;2023-02-15T04:30:33;32.53;;;6.15;;
40945;SDS011;55635;50.264;11.918;2023-02-15T04:33:14;47.00;;;9.60;;
40945;SDS011;55635;50.264;11.918;2023-02-15T04:35:55;12.88;;;6.30;;
40945;SDS011;55635;50.264;11.918;2023-02-15T04:38:36;17.75;;;6.88;;
40945;SDS011;55635;50.264;11.918;2023-02-15T04:41:17;9.60;;;5.22;;
40945;SDS011;55635;50.264;11.918;2023-02-15T04:43:58;7.25;;;5.10;;
40945;SDS011;55635;50.264;11.918;2023-02-15T04:46:40;7.43;;;4.85;;
40945;SDS011;55635;50.264;11.918;2023-02-15T04:49:21;9.60;;;5.35;;
40945;SDS011;55635;50.264;11.918;2023-02-15T04:52:02;8.05;;;5.10;;
40945;SDS011;55635;50.264;11.918;2023-02-15T04:54:44;7.97;;;5.13;;
40945;SDS011;55635;50.264;11.918;2023-02-15T04:57:25;5.90;;;4.82;;
40945;SDS011;55635;50.264;11.918;2023-02-15T05:00:06;4.47;;;4.00;;
40945;SDS011;55635;50.264;11.918;2023-02-15T05:02:49;6.13;;;4.13;;
40945;SDS011;55635;50.264;11.918;2023-02-15T05:05:30;7.07;;;4.75;;
40945;SDS011;55635;50.264;11.918;2023-02-15T05:08:11;6.10;;;4.93;;
40945;SDS011;55635;50.264;11.918;2023-02-15T05:10:52;7.75;;;5.07;;
40945;SDS011;55635;50.264;11.918;2023-02-15T05:13:33;6.53;;;5.10;;
40945;SDS011;55635;50.264;11.918;2023-02-15T05:16:14;7.03;;;4.50;;
40945;SDS011;55635;50.264;11.918;2023-02-15T05:18:55;7.15;;;4.55;;
40945;SDS011;55635;50.264;11.918;2023-02-15T05:21:36;8.82;;;5.50;;
40945;SDS011;55635;50.264;11.918;2023-02-15T05:24:17;7.20;;;5.20;;
40945;SDS011;55635;50.264;11.918;2023-02-15T05:27:16;7.07;;;4.82;;
40945;SDS011;55635;50.264;11.918;2023-02-15T05:30:16;8.18;;;5.45;;
40945;SDS011;55635;50.264;11.918;2023-02-15T05:32:58;8.05;;;4.85;;
40945;SDS011;55635;50.264;11.918;2023-02-15T05:35:38;8.40;;;5.20;;
40945;SDS011;55635;50.264;11.918;2023-02-15T05:38:20;8.38;;;4.97;;
40945;SDS011;55635;50.264;11.918;2023-02-15T05:41:01;8.73;;;5.75;;
40945;SDS011;55635;50.264;11.918;2023-02-15T05:43:42;9.77;;;5.93;;
40945;SDS011;55635;50.264;11.918;2023-02-15T05:46:26;10.60;;;5.47;;
40945;SDS011;55635;50.264;11.918;2023-02-15T05:49:07;10.50;;;5.55;;
40945;SDS011;55635;50.264;11.918;2023-02-15T05:51:48;9.73;;;5.70;;
40945;SDS011;55635;50.264;11.918;2023-02-15T05:54:29;9.88;;;6.65;;
40945;SDS011;55635;50.264;11.918;2023-02-15T05:57:10;9.80;;;6.13;;
40945;SDS011;55635;50.264;11.918;2023-02-15T05:59:51;8.05;;;5.35;;
40945;SDS011;55635;50.264;11.918;2023-02-15T06:02:35;8.63;;;5.10;;
40945;SDS011;55635;50.264;11.918;2023-02-15T06:05:17;9.18;;;5.85;;
40945;SDS011;55635;50.264;11.918;2023-02-15T06:07:58;12.18;;;5.72;;
40945;SDS011;55635;50.264;11.918;2023-02-15T06:10:39;8.90;;;6.03;;
40945;SDS011;55635;50.264;11.918;2023-02-15T06:13:20;11.02;;;6.32;;
40945;SDS011;55635;50.264;11.918;2023-02-15T06:16:01;9.15;;;5.82;;
40945;SDS011;55635;50.264;11.918;2023-02-15T06:18:42;13.30;;;7.20;;
40945;SDS011;55635;50.264;11.918;2023-02-15T06:21:24;9.68;;;6.25;;
40945;SDS011;55635;50.264;11.918;2023-02-15T06:24:05;13.95;;;6.70;;
40945;SDS011;55635;50.264;11.918;2023-02-15T06:26:49;11.02;;;6.72;;
40945;SDS011;55635;50.264;11.918;2023-02-15T06:29:33;14.70;;;7.65;;
40945;SDS011;55635;50.264;11.918;2023-02-15T06:32:14;9.68;;;6.05;;
40945;SDS011;55635;50.264;11.918;2023-02-15T06:34:54;11.93;;;6.80;;
40945;SDS011;55635;50.264;11.918;2023-02-15T06:37:36;12.93;;;6.70;;
40945;SDS011;55635;50.264;11.918;2023-02-15T06:40:17;15.90;;;6.57;;
40945;SDS011;55635;50.264;11.918;2023-02-15T06:42:58;22.45;;;8.07;;
40945;SDS011;55635;50.264;11.918;2023-02-15T06:45:39;11.75;;;6.88;;
40945;SDS011;55635;50.264;11.918;2023-02-15T06:48:21;14.40;;;7.82;;
40945;SDS011;55635;50.264;11.918;2023-02-15T06:51:02;14.07;;;7.57;;
40945;SDS011;55635;50.264;11.918;2023-02-15T06:53:43;11.75;;;6.70;;
40945;SDS011;55635;50.264;11.918;2023-02-15T06:56:24;16.10;;;7.50;;
40945;SDS011;55635;50.264;11.918;2023-02-15T06:59:05;16.20;;;7.07;;
40945;SDS011;55635;50.264;11.918;2023-02-15T07:01:46;10.27;;;5.60;;
40945;SDS011;55635;50.264;11.918;2023-02-15T07:04:27;10.45;;;6.30;;
40945;SDS011;55635;50.264;11.918;2023-02-15T07:07:10;9.45;;;6.30;;
40945;SDS011;55635;50.264;11.918;2023-02-15T07:09:52;11.35;;;6.07;;
40945;SDS011;55635;50.264;11.918;2023-02-15T07:12:33;10.25;;;6.70;;
40945;SDS011;55635;50.264;11.918;2023-02-15T07:15:22;13.38;;;7.43;;
40945;SDS011;55635;50.264;11.918;2023-02-15T07:18:04;10.95;;;6.40;;
40945;SDS011;55635;50.264;11.918;2023-02-15T07:20:45;8.73;;;5.70;;
40945;SDS011;55635;50.264;11.918;2023-02-15T07:23:27;9.80;;;5.30;;
40945;SDS011;55635;50.264;11.918;2023-02-15T07:26:08;7.93;;;5.03;;
40945;SDS011;55635;50.264;11.918;2023-02-15T07:28:49;7.07;;;5.18;;
40945;SDS011;55635;50.264;11.918;2023-02-15T07:31:31;7.82;;;4.75;;
40945;SDS011;55635;50.264;11.918;2023-02-15T07:34:12;6.28;;;4.75;;
40945;SDS011;55635;50.264;11.918;2023-02-15T07:36:53;5.90;;;4.72;;
40945;SDS011;55635;50.264;11.918;2023-02-15T07:39:34;6.05;;;4.10;;
40945;SDS011;55635;50.264;11.918;2023-02-15T07:42:14;5.10;;;4.20;;
40945;SDS011;55635;50.264;11.918;2023-02-15T07:44:55;6.03;;;4.38;;
40945;SDS011;55635;50.264;11.918;2023-02-15T07:47:36;5.47;;;4.25;;
40945;SDS011;55635;50.264;11.918;2023-02-15T07:50:17;5.32;;;4.18;;
40945;SDS011;55635;50.264;11.918;2023-02-15T07:52:58;8.18;;;4.85;;
40945;SDS011;55635;50.264;11.918;2023-02-15T07:55:42;6.07;;;4.03;;
40945;SDS011;55635;50.264;11.918;2023-02-15T07:58:23;7.63;;;4.65;;
40945;SDS011;55635;50.264;11.918;2023-02-15T08:01:29;6.68;;;4.68;;
40945;SDS011;55635;50.264;11.918;2023-02-15T08:04:13;7.80;;;5.00;;
40945;SDS011;55635;50.264;11.918;2023-02-15T08:06:54;6.90;;;5.07;;
40945;SDS011;55635;50.264;11.918;2023-02-15T08:09:35;6.60;;;4.82;;
40945;SDS011;55635;50.264;11.918;2023-02-15T08:12:16;7.43;;;5.15;;
40945;SDS011;55635;50.264;11.918;2023-02-15T08:14:56;8.85;;;4.95;;
40945;SDS011;55635;50.264;11.918;2023-02-15T08:17:38;6.47;;;5.00;;
40945;SDS011;55635;50.264;11.918;2023-02-15T08:20:20;7.47;;;5.35;;
40945;SDS011;55635;50.264;11.918;2023-02-15T08:23:01;10.77;;;5.05;;
40945;SDS011;55635;50.264;11.918;2023-02-15T08:25:42;10.27;;;5.20;;
40945;SDS011;55635;50.264;11.918;2023-02-15T08:28:23;9.02;;;5.88;;
40945;SDS011;55635;50.264;11.918;2023-02-15T08:31:07;7.05;;;5.13;;
40945;SDS011;55635;50.264;11.918;2023-02-15T08:33:51;6.15;;;5.47;;
40945;SDS011;55635;50.264;11.918;2023-02-15T08:36:35;6.10;;;4.93;;
40945;SDS011;55635;50.264;11.918;2023-02-15T08:39:16;6.78;;;4.90;;
40945;SDS011;55635;50.264;11.918;2023-02-15T08:41:58;6.18;;;4.75;;
40945;SDS011;55635;50.264;11.918;2023-02-15T08:44:39;9.82;;;5.78;;
40945;SDS011;55635;50.264;11.918;2023-02-15T08:47:20;6.75;;;5.35;;
40945;SDS011;55635;50.264;11.918;2023-02-15T08:50:00;6.82;;;5.07;;
40945;SDS011;55635;50.264;11.918;2023-02-15T08:52:41;7.93;;;5.15;;
40945;SDS011;55635;50.264;11.918;2023-02-15T08:55:22;6.80;;;4.75;;
40945;SDS011;55635;50.264;11.918;2023-02-15T08:58:03;7.35;;;5.35;;
40945;SDS011;55635;50.264;11.918;2023-02-15T09:00:44;8.85;;;5.22;;
40945;SDS011;55635;50.264;11.918;2023-02-15T09:03:25;6.25;;;5.00;;
40945;SDS011;55635;50.264;11.918;2023-02-15T09:06:06;6.80;;;5.03;;
40945;SDS011;55635;50.264;11.918;2023-02-15T09:08:48;7.07;;;5.45;;
40945;SDS011;55635;50.264;11.918;2023-02-15T09:11:32;5.93;;;4.80;;
40945;SDS011;55635;50.264;11.918;2023-02-15T09:14:19;7.88;;;5.20;;
40945;SDS011;55635;50.264;11.918;2023-02-15T09:17:01;5.60;;;4.45;;
40945;SDS011;55635;50.264;11.918;2023-02-15T09:19:45;5.70;;;4.63;;
40945;SDS011;55635;50.264;11.918;2023-02-15T09:22:25;5.75;;;4.85;;
40945;SDS011;55635;50.264;11.918;2023-02-15T09:25:06;5.65;;;4.95;;
40945;SDS011;55635;50.264;11.918;2023-02-15T09:27:47;5.10;;;4.57;;
40945;SDS011;55635;50.264;11.918;2023-02-15T09:30:28;5.70;;;4.53;;
40945;SDS011;55635;50.264;11.918;2023-02-15T09:33:09;6.07;;;4.65;;
40945;SDS011;55635;50.264;11.918;2023-02-15T09:35:50;5.97;;;4.95;;
40945;SDS011;55635;50.264;11.918;2023-02-15T09:38:31;5.28;;;4.68;;
40945;SDS011;55635;50.264;11.918;2023-02-15T09:41:30;5.78;;;4.90;;
40945;SDS011;55635;50.264;11.918;2023-02-15T09:54:21;6.45;;;4.72;;
40945;SDS011;55635;50.264;11.918;2023-02-15T09:57:30;8.60;;;5.75;;
40945;SDS011;55635;50.264;11.918;2023-02-15T10:04:18;6.78;;;5.00;;
40945;SDS011;55635;50.264;11.918;2023-02-15T10:13:47;6.60;;;4.75;;
40945;SDS011;55635;50.264;11.918;2023-02-15T10:26:22;8.77;;;4.85;;
40945;SDS011;55635;50.264;11.918;2023-02-15T10:29:31;7.35;;;5.32;;
40945;SDS011;55635;50.264;11.918;2023-02-15T10:32:27;7.13;;;5.93;;
40945;SDS011;55635;50.264;11.918;2023-02-15T10:35:20;8.63;;;5.35;;
40945;SDS011;55635;50.264;11.918;2023-02-15T10:44:49;7.65;;;5.95;;
40945;SDS011;55635;50.264;11.918;2023-02-15T11:06:52;10.88;;;6.97;;
40945;SDS011;55635;50.264;11.918;2023-02-15T11:09:42;10.75;;;7.85;;
40945;SDS011;55635;50.264;11.918;2023-02-15T11:12:53;11.95;;;7.43;;
40945;SDS011;55635;50.264;11.918;2023-02-15T11:15:39;11.93;;;7.80;;
40945;SDS011;55635;50.264;11.918;2023-02-15T11:18:38;10.10;;;7.63;;
40945;SDS011;55635;50.264;11.918;2023-02-15T11:21:57;13.73;;;8.63;;
40945;SDS011;55635;50.264;11.918;2023-02-15T11:24:45;10.05;;;7.30;;
40945;SDS011;55635;50.264;11.918;2023-02-15T11:27:29;10.90;;;7.38;;
40945;SDS011;55635;50.264;11.918;2023-02-15T11:30:22;11.43;;;8.23;;
40945;SDS011;55635;50.264;11.918;2023-02-15T11:33:12;10.75;;;7.85;;
40945;SDS011;55635;50.264;11.918;2023-02-15T11:36:09;9.52;;;6.78;;
40945;SDS011;55635;50.264;11.918;2023-02-15T11:39:02;9.13;;;6.65;;
40945;SDS011;55635;50.264;11.918;2023-02-15T11:41:52;9.95;;;7.55;;
40945;SDS011;55635;50.264;11.918;2023-02-15T11:44:39;13.30;;;7.97;;
40945;SDS011;55635;50.264;11.918;2023-02-15T11:47:37;11.88;;;7.95;;
40945;SDS011;55635;50.264;11.918;2023-02-15T11:50:22;12.15;;;8.68;;
40945;SDS011;55635;50.264;11.918;2023-02-15T11:56:12;12.48;;;8.73;;
40945;SDS011;55635;50.264;11.918;2023-02-15T11:59:12;11.95;;;8.18;;
40945;SDS011;55635;50.264;11.918;2023-02-15T12:02:15;13.82;;;9.75;;
40945;SDS011;55635;50.264;11.918;2023-02-15T12:05:00;13.52;;;8.60;;
40945;SDS011;55635;50.264;11.918;2023-02-15T12:08:00;14.27;;;10.10;;
40945;SDS011;55635;50.264;11.918;2023-02-15T12:11:11;15.40;;;10.35;;
40945;SDS011;55635;50.264;11.918;2023-02-15T12:13:56;14.38;;;8.95;;
40945;SDS011;55635;50.264;11.918;2023-02-15T12:19:33;15.45;;;9.10;;
40945;SDS011;55635;50.264;11.918;2023-02-15T12:22:33;12.70;;;8.70;;
40945;SDS011;55635;50.264;11.918;2023-02-15T12:25:29;13.43;;;10.32;;
40945;SDS011;55635;50.264;11.918;2023-02-15T12:28:35;11.85;;;8.43;;
40945;SDS011;55635;50.264;11.918;2023-02-15T12:31:36;13.10;;;9.07;;
40945;SDS011;55635;50.264;11.918;2023-02-15T12:37:19;11.52;;;8.57;;
40945;SDS011;55635;50.264;11.918;2023-02-15T12:40:24;12.65;;;8.48;;
40945;SDS011;55635;50.264;11.918;2023-02-15T12:46:24;12.30;;;8.82;;
40945;SDS011;55635;50.264;11.918;2023-02-15T12:49:07;11.18;;;8.05;;
40945;SDS011;55635;50.264;11.918;2023-02-15T12:52:04;11.98;;;8.52;;
40945;SDS011;55635;50.264;11.918;2023-02-15T12:58:20;9.35;;;6.85;;
40945;SDS011;55635;50.264;11.918;2023-02-15T13:01:11;11.68;;;7.50;;
40945;SDS011;55635;50.264;11.918;2023-02-15T13:07:01;12.43;;;8.45;;
40945;SDS011;55635;50.264;11.918;2023-02-15T13:09:43;12.57;;;8.40;;
40945;SDS011;55635;50.264;11.918;2023-02-15T13:12:26;13.25;;;8.27;;
40945;SDS011;55635;50.264;11.918;2023-02-15T13:15:23;11.25;;;7.88;;
40945;SDS011;55635;50.264;11.918;2023-02-15T13:18:39;13.27;;;9.27;;
40945;SDS011;55635;50.264;11.918;2023-02-15T13:21:31;11.70;;;6.80;;
40945;SDS011;55635;50.264;11.918;2023-02-15T13:24:33;8.48;;;6.40;;
40945;SDS011;55635;50.264;11.918;2023-02-15T13:27:24;9.85;;;7.03;;
40945;SDS011;55635;50.264;11.918;2023-02-15T13:30:26;11.10;;;7.25;;
40945;SDS011;55635;50.264;11.918;2023-02-15T13:33:30;8.45;;;6.30;;
40945;SDS011;55635;50.264;11.918;2023-02-15T13:45:43;8.10;;;6.03;;
40945;SDS011;55635;50.264;11.918;2023-02-15T13:52:21;14.93;;;7.20;;
40945;SDS011;55635;50.264;11.918;2023-02-15T13:55:21;12.63;;;7.55;;
40945;SDS011;55635;50.264;11.918;2023-02-15T14:18:31;11.55;;;7.25;;
40945;SDS011;55635;50.264;11.918;2023-02-15T14:21:42;10.13;;;7.45;;
40945;SDS011;55635;50.264;11.918;2023-02-15T14:31:34;11.95;;;8.20;;
40945;SDS011;55635;50.264;11.918;2023-02-15T14:34:24;11.32;;;7.65;;
40945;SDS011;55635;50.264;11.918;2023-02-15T14:37:12;11.50;;;8.25;;
40945;SDS011;55635;50.264;11.918;2023-02-15T14:40:05;14.75;;;8.90;;
40945;SDS011;55635;50.264;11.918;2023-02-15T14:43:14;13.43;;;8.95;;
40945;SDS011;55635;50.264;11.918;2023-02-15T14:46:11;13.02;;;8.75;;
40945;SDS011;55635;50.264;11.918;2023-02-15T14:49:15;13.40;;;8.98;;
40945;SDS011;55635;50.264;11.918;2023-02-15T14:52:07;16.88;;;9.85;;
40945;SDS011;55635;50.264;11.918;2023-02-15T14:54:53;15.52;;;10.02;;
40945;SDS011;55635;50.264;11.918;2023-02-15T14:57:35;15.98;;;9.57;;
40945;SDS011;55635;50.264;11.918;2023-02-15T15:00:28;13.38;;;8.77;;
40945;SDS011;55635;50.264;11.918;2023-02-15T15:03:20;15.95;;;10.40;;
40945;SDS011;55635;50.264;11.918;2023-02-15T15:06:04;15.95;;;10.23;;
40945;SDS011;55635;50.264;11.918;2023-02-15T15:08:45;16.08;;;10.05;;
40945;SDS011;55635;50.264;11.918;2023-02-15T15:14:11;19.23;;;11.43;;
40945;SDS011;55635;50.264;11.918;2023-02-15T15:23:40;20.02;;;11.85;;
40945;SDS011;55635;50.264;11.918;2023-02-15T15:26:29;20.08;;;11.77;;
40945;SDS011;55635;50.264;11.918;2023-02-15T15:29:16;19.92;;;11.77;;
40945;SDS011;55635;50.264;11.918;2023-02-15T15:32:22;21.17;;;12.77;;
40945;SDS011;55635;50.264;11.918;2023-02-15T15:41:54;19.70;;;12.32;;
40945;SDS011;55635;50.264;11.918;2023-02-15T15:48:50;21.90;;;11.95;;
40945;SDS011;55635;50.264;11.918;2023-02-15T15:51:32;22.20;;;12.68;;
40945;SDS011;55635;50.264;11.918;2023-02-15T15:54:17;23.35;;;13.20;;
40945;SDS011;55635;50.264;11.918;2023-02-15T15:57:04;21.35;;;12.95;;
40945;SDS011;55635;50.264;11.918;2023-02-15T15:59:51;22.80;;;13.15;;
40945;SDS011;55635;50.264;11.918;2023-02-15T16:02:33;23.60;;;13.63;;
40945;SDS011;55635;50.264;11.918;2023-02-15T16:05:14;19.80;;;12.43;;
40945;SDS011;55635;50.264;11.918;2023-02-15T16:07:55;19.83;;;12.32;;
40945;SDS011;55635;50.264;11.918;2023-02-15T16:10:36;23.17;;;13.57;;
40945;SDS011;55635;50.264;11.918;2023-02-15T16:13:17;23.05;;;12.95;;
40945;SDS011;55635;50.264;11.918;2023-02-15T16:15:58;25.67;;;14.43;;
40945;SDS011;55635;50.264;11.918;2023-02-15T16:18:39;23.52;;;13.10;;
40945;SDS011;55635;50.264;11.918;2023-02-15T16:21:23;22.95;;;13.25;;
40945;SDS011;55635;50.264;11.918;2023-02-15T16:24:22;23.33;;;13.30;;
40945;SDS011;55635;50.264;11.918;2023-02-15T16:41:25;25.60;;;13.88;;
40945;SDS011;55635;50.264;11.918;2023-02-15T16:44:13;25.80;;;14.85;;
40945;SDS011;55635;50.264;11.918;2023-02-15T16:46:59;23.97;;;14.00;;
40945;SDS011;55635;50.264;11.918;2023-02-15T16:49:43;23.60;;;14.07;;
40945;SDS011;55635;50.264;11.918;2023-02-15T16:52:28;29.63;;;15.98;;
40945;SDS011;55635;50.264;11.918;2023-02-15T16:55:23;32.15;;;17.15;;
40945;SDS011;55635;50.264;11.918;2023-02-15T16:58:43;31.23;;;16.10;;
40945;SDS011;55635;50.264;11.918;2023-02-15T17:01:26;28.25;;;15.38;;
40945;SDS011;55635;50.264;11.918;2023-02-15T17:04:12;33.25;;;17.15;;
40945;SDS011;55635;50.264;11.918;2023-02-15T17:07:03;32.25;;;16.52;;
40945;SDS011;55635;50.264;11.918;2023-02-15T17:09:57;27.70;;;15.77;;
40945;SDS011;55635;50.264;11.918;2023-02-15T17:12:52;29.13;;;15.50;;
40945;SDS011;55635;50.264;11.918;2023-02-15T17:15:41;32.33;;;16.45;;
40945;SDS011;55635;50.264;11.918;2023-02-15T17:18:46;31.38;;;15.45;;
40945;SDS011;55635;50.264;11.918;2023-02-15T17:21:30;30.63;;;16.27;;
40945;SDS011;55635;50.264;11.918;2023-02-15T17:24:18;28.38;;;14.63;;
40945;SDS011;55635;50.264;11.918;2023-02-15T17:30:15;31.35;;;16.35;;
40945;SDS011;55635;50.264;11.918;2023-02-15T17:33:19;31.27;;;16.55;;
40945;SDS011;55635;50.264;11.918;2023-02-15T17:36:11;29.70;;;15.85;;
40945;SDS011;55635;50.264;11.918;2023-02-15T17:39:06;33.33;;;16.73;;
40945;SDS011;55635;50.264;11.918;2023-02-15T17:42:00;29.30;;;15.68;;
40945;SDS011;55635;50.264;11.918;2023-02-15T17:44:42;37.13;;;17.25;;
40945;SDS011;55635;50.264;11.918;2023-02-15T17:47:23;28.10;;;15.23;;
40945;SDS011;55635;50.264;11.918;2023-02-15T17:50:07;30.40;;;16.48;;
40945;SDS011;55635;50.264;11.918;2023-02-15T17:52:59;33.95;;;16.45;;
40945;SDS011;55635;50.264;11.918;2023-02-15T17:55:41;43.00;;;19.90;;
40945;SDS011;55635;50.264;11.918;2023-02-15T17:58:22;39.25;;;20.05;;
40945;SDS011;55635;50.264;11.918;2023-02-15T18:01:05;40.80;;;18.75;;
40945;SDS011;55635;50.264;11.918;2023-02-15T18:04:15;39.50;;;19.20;;
40945;SDS011;55635;50.264;11.918;2023-02-15T18:07:14;37.65;;;17.10;;
40945;SDS011;55635;50.264;11.918;2023-02-15T18:10:16;31.83;;;17.13;;
40945;SDS011;55635;50.264;11.918;2023-02-15T18:13:16;38.38;;;19.08;;
40945;SDS011;55635;50.264;11.918;2023-02-15T18:15:58;40.53;;;19.80;;
40945;SDS011;55635;50.264;11.918;2023-02-15T18:18:39;37.47;;;18.92;;
40945;SDS011;55635;50.264;11.918;2023-02-15T18:21:22;37.50;;;18.30;;
40945;SDS011;55635;50.264;11.918;2023-02-15T18:24:04;41.08;;;19.33;;
40945;SDS011;55635;50.264;11.918;2023-02-15T18:26:45;39.25;;;19.02;;
40945;SDS011;55635;50.264;11.918;2023-02-15T18:29:27;38.15;;;19.30;;
40945;SDS011;55635;50.264;11.918;2023-02-15T18:32:12;38.50;;;19.25;;
40945;SDS011;55635;50.264;11.918;2023-02-15T18:35:15;35.20;;;18.50;;
40945;SDS011;55635;50.264;11.918;2023-02-15T18:37:59;43.22;;;20.35;;
40945;SDS011;55635;50.264;11.918;2023-02-15T18:40:43;36.90;;;18.88;;
40945;SDS011;55635;50.264;11.918;2023-02-15T18:43:25;38.55;;;19.08;;
40945;SDS011;55635;50.264;11.918;2023-02-15T18:46:06;40.35;;;18.58;;
40945;SDS011;55635;50.264;11.918;2023-02-15T18:48:47;40.35;;;19.65;;
40945;SDS011;55635;50.264;11.918;2023-02-15T18:51:28;38.90;;;20.25;;
40945;SDS011;55635;50.264;11.918;2023-02-15T18:54:23;33.90;;;17.73;;
40945;SDS011;55635;50.264;11.918;2023-02-15T18:57:04;37.85;;;19.45;;
40945;SDS011;55635;50.264;11.918;2023-02-15T18:59:49;41.72;;;20.70;;
40945;SDS011;55635;50.264;11.918;2023-02-15T19:02:30;43.08;;;19.30;;
40945;SDS011;55635;50.264;11.918;2023-02-15T19:05:11;42.83;;;20.60;;
40945;SDS011;55635;50.264;11.918;2023-02-15T19:07:54;42.67;;;21.20;;
40945;SDS011;55635;50.264;11.918;2023-02-15T19:10:36;40.83;;;22.45;;